M I D A S
Marine Information and Data Acquisition System
Tripno 1805 of the Zeeleeuw from 2009-11-06 07:33:50 to 2009-11-06 14:23:38
Back to CruiseResearch ActivitiesStationsMapUnderway DataData graphs

EquipmentUnitsComment
TimeDGPSUTC
LatitudeDGPSDM.mWGS84
LongitudeDGPSDM.mWGS84
HeadingGyrodeg 
SOGDGPSknotsSpeed over ground
COGDGPSdegCourse over ground
DepthEcho soundermeters200 kHz
Missing or incorrect values are displayed as -999
Navigation data collected by the RV Zeeleeuw from 2009-11-06 07:29:44 to 2009-11-06 14:23:38
Time Latitude Longitude Heading SOG COG Depth
2009-11-06 07:30:53 51°13.681 2°55.892 104.2 3.3 287 -999
2009-11-06 07:31:53 51°13.696 2°55.806 99.4 3.3 285 -999
2009-11-06 07:32:52 51°13.703 2°55.741 78.6 1.3 281 12.3
2009-11-06 07:33:50 51°13.713 2°55.738 30.2 0.9 3 12
2009-11-06 07:34:50 51°13.705 2°55.727 1.8 0.8 217 4.6
2009-11-06 07:35:49 51°13.747 2°55.694 336.8 5.1 335 10.9
2009-11-06 07:36:49 51°13.845 2°55.622 335.8 7.3 336 9.8
2009-11-06 07:37:49 51°13.965 2°55.533 335.5 8.4 335 9.9
2009-11-06 07:38:49 51°14.094 2°55.432 333.4 8.8 332 9.1
2009-11-06 07:39:49 51°14.219 2°55.305 323.1 9.1 321 9.7
2009-11-06 07:40:49 51°14.33 2°55.123 311.1 10.3 310 9.8
2009-11-06 07:41:49 51°14.446 2°54.909 316.7 11 315 9.5
2009-11-06 07:42:49 51°14.591 2°54.728 334.7 11 332 8.8
2009-11-06 07:43:49 51°14.754 2°54.599 340.4 11 334 8.9
2009-11-06 07:44:49 51°14.919 2°54.477 340.5 10.9 335 8.3
2009-11-06 07:45:49 51°15.085 2°54.355 340.5 11 335 9
2009-11-06 07:46:49 51°15.251 2°54.233 340.5 11 335 9.1
2009-11-06 07:47:49 51°15.416 2°54.111 341.2 11 336 8.8
2009-11-06 07:48:49 51°15.583 2°53.988 340.8 11.1 335 9
2009-11-06 07:49:49 51°15.75 2°53.863 340.2 11.1 334 10
2009-11-06 07:50:49 51°15.916 2°53.732 338.8 11.2 329 10.4
2009-11-06 07:51:49 51°16.069 2°53.56 328.1 11.4 323 10.6
2009-11-06 07:52:49 51°16.223 2°53.387 331.5 11.4 326 10.7
2009-11-06 07:53:49 51°16.38 2°53.219 331.7 11.3 326 10.6
2009-11-06 07:54:49 51°16.536 2°53.056 332.6 11.2 327 10.6
2009-11-06 07:55:49 51°16.693 2°52.894 332.1 11.2 327 9.6
2009-11-06 07:56:49 51°16.852 2°52.748 337.1 10.9 334 8.2
2009-11-06 07:57:49 51°17.021 2°52.661 353.2 10.7 348 8.8
2009-11-06 07:58:49 51°17.196 2°52.639 0.8 10.6 357 8.6
2009-11-06 07:59:49 51°17.372 2°52.627 1.9 10.7 357 9
2009-11-06 08:00:49 51°17.548 2°52.614 1.2 10.6 357 9.2
2009-11-06 08:01:49 51°17.724 2°52.596 0.1 10.6 357 9.3
2009-11-06 08:02:49 51°17.9 2°52.574 0.8 10.6 356 9.1
2009-11-06 08:03:49 51°18.075 2°52.547 358.4 10.5 353 9.2
2009-11-06 08:04:49 51°18.25 2°52.524 4.9 10.4 359 9.4
2009-11-06 08:05:49 51°18.42 2°52.565 15.3 10.3 11 10.1
2009-11-06 08:06:49 51°18.589 2°52.62 16.3 10.4 12 10
2009-11-06 08:07:49 51°18.759 2°52.678 16.1 10.4 13 10.7
2009-11-06 08:08:49 51°18.929 2°52.726 15.6 10.4 10 10.8
2009-11-06 08:09:49 51°19.1 2°52.775 15.6 10.5 11 11.7
2009-11-06 08:10:49 51°19.271 2°52.825 15.1 10.5 9 12.1
2009-11-06 08:11:49 51°19.443 2°52.874 14.3 10.5 11 13
2009-11-06 08:12:49 51°19.615 2°52.921 14.4 10.5 9 13.7
2009-11-06 08:13:49 51°19.787 2°52.97 15.2 10.5 10 14.4
2009-11-06 08:14:49 51°19.958 2°53.015 14.3 10.5 9 14.7
2009-11-06 08:15:49 51°20.13 2°53.055 13.9 10.5 8 14.9
2009-11-06 08:16:49 51°20.302 2°53.097 14.3 10.4 9 15
2009-11-06 08:17:49 51°20.472 2°53.14 14.8 10.4 9 15.2
2009-11-06 08:18:49 51°20.643 2°53.181 13.5 10.4 8 15.1
2009-11-06 08:19:49 51°20.811 2°53.228 14.9 10.3 11 14.9
2009-11-06 08:20:49 51°20.982 2°53.267 12.7 10.4 7 15
2009-11-06 08:21:49 51°21.152 2°53.309 14.6 10.4 8 15.1
2009-11-06 08:22:49 51°21.323 2°53.349 14.6 10.4 8 14.5
2009-11-06 08:23:49 51°21.492 2°53.393 14.8 10.3 10 15
2009-11-06 08:24:49 51°21.661 2°53.438 14.6 10.4 8 15.3
2009-11-06 08:25:49 51°21.832 2°53.478 14.2 10.4 7 17.2
2009-11-06 08:26:49 51°22.003 2°53.519 13.9 10.3 9 18.1
2009-11-06 08:27:49 51°22.173 2°53.559 14.6 10.4 7 19.8
2009-11-06 08:28:49 51°22.344 2°53.599 13.6 10.3 7 20.7
2009-11-06 08:29:49 51°22.515 2°53.639 14.3 10.5 8 21.3
2009-11-06 08:30:49 51°22.688 2°53.682 14.6 10.6 10 21.7
2009-11-06 08:31:49 51°22.861 2°53.726 15.3 10.5 9 21
2009-11-06 08:32:49 51°23.033 2°53.77 15 10.5 8 19.4
2009-11-06 08:33:49 51°23.203 2°53.817 13.9 10.4 10 20.3
2009-11-06 08:34:49 51°23.372 2°53.86 13.6 10.3 10 18.7
2009-11-06 08:35:49 51°23.541 2°53.903 13.7 10.2 9 19.2
2009-11-06 08:36:49 51°23.709 2°53.948 15 10.3 10 18.7
2009-11-06 08:37:49 51°23.878 2°53.991 14.2 10.2 9 19.9
2009-11-06 08:38:49 51°24.046 2°54.034 13.7 10.2 11 20.6
2009-11-06 08:39:49 51°24.217 2°54.067 10.1 10.5 4 20.6
2009-11-06 08:40:49 51°24.39 2°54.077 7.2 10.4 1 17.2
2009-11-06 08:41:49 51°24.562 2°54.087 7.9 10.2 3 16.4
2009-11-06 08:42:49 51°24.734 2°54.102 8 10.3 4 16.6
2009-11-06 08:43:49 51°24.906 2°54.114 7.3 10.5 1 17.9
2009-11-06 08:44:49 51°25.08 2°54.127 8.7 10.4 2 19.7
2009-11-06 08:45:49 51°25.253 2°54.143 8.6 10.4 5 20.3
2009-11-06 08:46:49 51°25.425 2°54.161 8.1 10.3 4 18.4
2009-11-06 08:47:49 51°25.596 2°54.177 9.2 10.1 5 19.3
2009-11-06 08:48:49 51°25.767 2°54.191 8 10.3 3 19.8
2009-11-06 08:49:49 51°25.938 2°54.206 8.8 10.2 3 20.3
2009-11-06 08:50:49 51°26.11 2°54.216 8.2 10.3 3 21.6
2009-11-06 08:51:49 51°26.282 2°54.231 10.1 10.4 2 23.4
2009-11-06 08:52:49 51°26.453 2°54.249 9 10.3 4 25.7
2009-11-06 08:53:49 51°26.624 2°54.257 7.2 10.4 -999 29.8
2009-11-06 08:54:49 51°26.795 2°54.255 6.6 10.1 359 24.2
2009-11-06 08:55:49 51°26.961 2°54.25 5 9.9 359 23.3
2009-11-06 08:56:49 51°27.127 2°54.246 5.8 10 2 23.8
2009-11-06 08:57:49 51°27.292 2°54.243 5.5 10.1 358 24.8
2009-11-06 08:58:49 51°27.461 2°54.242 6 10.1 -999 24.7
2009-11-06 08:59:49 51°27.628 2°54.242 6.1 10.1 1 23.9
2009-11-06 09:00:49 51°27.795 2°54.244 5.7 10 2 19.8
2009-11-06 09:01:49 51°27.962 2°54.246 6.7 10 359 19.7
2009-11-06 09:02:49 51°28.127 2°54.252 6.4 9.9 -999 20.4
2009-11-06 09:03:49 51°28.292 2°54.257 5.8 9.9 4 20.5
2009-11-06 09:04:49 51°28.46 2°54.265 7.3 10 5 21.1
2009-11-06 09:05:49 51°28.625 2°54.27 5.5 10 359 23.2
2009-11-06 09:06:49 51°28.792 2°54.275 6.6 10.1 3 24.9
2009-11-06 09:07:49 51°28.957 2°54.279 7 10 -999 24.9
2009-11-06 09:08:49 51°29.125 2°54.282 6.9 10.1 2 26
2009-11-06 09:09:49 51°29.293 2°54.285 5.6 10.1 359 26.7
2009-11-06 09:10:49 51°29.463 2°54.289 5.9 10.2 358 27.6
2009-11-06 09:11:49 51°29.632 2°54.291 6.2 10.3 -999 28.6
2009-11-06 09:12:49 51°29.803 2°54.29 6.2 10.4 356 30.5
2009-11-06 09:13:49 51°29.973 2°54.292 6.4 10.1 2 31.1
2009-11-06 09:14:49 51°30.141 2°54.297 10.5 10 4 31
2009-11-06 09:15:49 51°30.305 2°54.34 16.5 10 8 32
2009-11-06 09:16:49 51°30.469 2°54.389 16.1 10 13 33.6
2009-11-06 09:17:49 51°30.633 2°54.442 17.3 10 12 30.3
2009-11-06 09:18:49 51°30.796 2°54.498 17.5 10 8 18.2
2009-11-06 09:19:49 51°30.953 2°54.554 15.5 9.6 14 18.4
2009-11-06 09:20:49 51°31.11 2°54.606 14.6 9.7 10 17
2009-11-06 09:21:49 51°31.266 2°54.663 15.4 9.7 10 18.7
2009-11-06 09:22:49 51°31.424 2°54.716 15.4 9.9 13 18.5
2009-11-06 09:23:49 51°31.581 2°54.772 15.3 9.5 9 19.2
2009-11-06 09:24:49 51°31.737 2°54.82 13.4 9.6 7 19.9
2009-11-06 09:25:49 51°31.898 2°54.857 11 9.6 7 18.2
2009-11-06 09:26:49 51°32.057 2°54.881 9.1 9.3 7 20.2
2009-11-06 09:27:49 51°32.176 2°54.891 8.1 5.7 4 20
2009-11-06 09:28:49 51°32.248 2°54.939 28.4 4.4 24 22
2009-11-06 09:29:49 51°32.331 2°55.002 32.4 5.9 33 22
2009-11-06 09:30:49 51°32.389 2°55.087 55.9 3 64 22.2
2009-11-06 09:31:49 51°32.386 2°55.138 87.8 1.4 119 21.9
2009-11-06 09:32:49 51°32.373 2°55.159 103.2 0.9 141 21.5
2009-11-06 09:33:49 51°32.358 2°55.167 114 1 171 22.1
2009-11-06 09:34:49 51°32.343 2°55.17 119.1 1 184 22.1
2009-11-06 09:35:49 51°32.33 2°55.169 120 0.9 190 22.2
2009-11-06 09:36:49 51°32.319 2°55.166 118.4 0.7 197 22.3
2009-11-06 09:37:49 51°32.309 2°55.162 120.5 0.5 197 22.3
2009-11-06 09:38:49 51°32.299 2°55.155 115.7 0.5 213 21.4
2009-11-06 09:39:49 51°32.292 2°55.146 104.7 0.6 219 20.5
2009-11-06 09:40:49 51°32.283 2°55.137 106.7 0.8 207 19.4
2009-11-06 09:41:49 51°32.272 2°55.127 116.3 0.6 209 21
2009-11-06 09:42:49 51°32.263 2°55.118 117.6 0.5 221 21.7
2009-11-06 09:43:49 51°32.255 2°55.11 116.1 0.4 208 22.2
2009-11-06 09:44:49 51°32.249 2°55.101 112.6 0.5 232 22.2
2009-11-06 09:45:49 51°32.243 2°55.091 105.9 0.4 234 22.1
2009-11-06 09:46:49 51°32.237 2°55.08 103.5 0.7 219 21.9
2009-11-06 09:47:49 51°32.231 2°55.07 102 0.6 223 21.5
2009-11-06 09:48:49 51°32.223 2°55.058 100.2 0.8 223 20.5
2009-11-06 09:49:49 51°32.214 2°55.043 103.7 0.8 229 18.5
2009-11-06 09:50:49 51°32.204 2°55.032 111.2 0.6 217 20.8
2009-11-06 09:51:49 51°32.196 2°55.024 115.2 0.6 206 21.4
2009-11-06 09:52:49 51°32.187 2°55.016 112.8 0.6 216 21.9
2009-11-06 09:53:49 51°32.178 2°55.007 108.6 0.6 211 22
2009-11-06 09:54:49 51°32.171 2°54.999 105.3 0.6 217 22
2009-11-06 09:55:49 51°32.164 2°54.991 103.9 0.6 215 21.7
2009-11-06 09:56:49 51°32.156 2°54.981 102.4 0.7 216 20.9
2009-11-06 09:57:49 51°32.145 2°54.968 99.1 0.7 226 19.5
2009-11-06 09:58:49 51°32.134 2°54.957 107.6 0.7 206 19.4
2009-11-06 09:59:49 51°32.123 2°54.95 115.5 0.5 206 21.4
2009-11-06 10:00:49 51°32.112 2°54.945 114.6 0.7 196 21.6
2009-11-06 10:01:49 51°32.103 2°54.939 112.6 0.4 207 21.7
2009-11-06 10:02:49 51°32.095 2°54.932 105.9 0.5 216 21.8
2009-11-06 10:03:49 51°32.087 2°54.924 101.1 0.7 207 21.6
2009-11-06 10:04:49 51°32.077 2°54.915 100.4 0.8 215 21.2
2009-11-06 10:05:49 51°32.069 2°54.903 99.5 0.5 224 20.6
2009-11-06 10:06:49 51°32.059 2°54.891 105.6 0.7 220 18.4
2009-11-06 10:07:49 51°32.049 2°54.881 114.6 0.6 215 20.5
2009-11-06 10:08:49 51°32.041 2°54.87 114.8 0.5 224 21.3
2009-11-06 10:09:49 51°32.034 2°54.859 110.5 0.6 228 21
2009-11-06 10:10:49 51°32.026 2°54.843 99.5 0.8 230 20.1
2009-11-06 10:11:49 51°32.016 2°54.825 97 0.8 225 18.2
2009-11-06 10:12:49 51°32.007 2°54.811 102.7 0.7 222 20.4
2009-11-06 10:13:49 51°31.998 2°54.799 111.6 0.7 217 21
2009-11-06 10:14:49 51°31.987 2°54.789 115.5 0.6 216 21.1
2009-11-06 10:15:49 51°31.978 2°54.777 117.6 0.8 221 20.6
2009-11-06 10:16:49 51°31.968 2°54.762 114.4 0.8 229 18.5
2009-11-06 10:17:49 51°31.959 2°54.747 116.1 0.6 233 20
2009-11-06 10:18:49 51°31.951 2°54.733 107.9 0.7 230 21.5
2009-11-06 10:19:49 51°31.944 2°54.72 103 0.8 221 21.6
2009-11-06 10:20:49 51°31.936 2°54.708 99.8 0.7 223 21.5
2009-11-06 10:21:49 51°31.929 2°54.699 97.1 0.7 204 21.4
2009-11-06 10:22:49 51°31.917 2°54.692 106.9 0.8 207 20.8
2009-11-06 10:23:49 51°31.907 2°54.682 110.7 0.7 211 19.7
2009-11-06 10:24:49 51°31.896 2°54.671 114.8 0.7 216 19.7
2009-11-06 10:25:49 51°31.885 2°54.664 119.9 0.7 200 20.9
2009-11-06 10:26:49 51°31.874 2°54.658 118.5 0.6 201 20.9
2009-11-06 10:27:49 51°31.865 2°54.651 112.9 0.5 214 21.1
2009-11-06 10:28:49 51°31.856 2°54.643 109.3 0.6 202 21.4
2009-11-06 10:29:49 51°31.848 2°54.638 103.9 0.6 199 21.1
2009-11-06 10:30:49 51°31.837 2°54.632 107.5 0.7 207 20.8
2009-11-06 10:31:49 51°31.825 2°54.623 113.3 0.7 207 19.7
2009-11-06 10:32:49 51°31.813 2°54.614 123.5 1 202 19
2009-11-06 10:33:49 51°31.8 2°54.607 129.7 0.8 205 20.6
2009-11-06 10:34:49 51°31.79 2°54.6 129.7 0.7 201 21.2
2009-11-06 10:35:49 51°31.781 2°54.593 124.6 0.7 200 20.9
2009-11-06 10:36:49 51°31.771 2°54.586 119 0.6 203 20.9
2009-11-06 10:37:49 51°31.761 2°54.58 112.8 0.7 203 20.6
2009-11-06 10:38:49 51°31.75 2°54.571 113.5 0.9 208 19.5
2009-11-06 10:39:49 51°31.739 2°54.559 110.4 1 215 17.8
2009-11-06 10:40:49 51°31.729 2°54.548 115.3 0.5 206 19.9
2009-11-06 10:41:49 51°31.722 2°54.54 117.5 0.5 212 20.7
2009-11-06 10:42:49 51°31.714 2°54.531 114.8 0.7 215 20.5
2009-11-06 10:43:49 51°31.704 2°54.524 114.4 0.7 206 20.5
2009-11-06 10:44:49 51°31.693 2°54.516 115.3 0.8 202 20.6
2009-11-06 10:45:49 51°31.682 2°54.508 115.6 0.7 206 19.5
2009-11-06 10:46:49 51°31.671 2°54.497 109 0.8 208 16.8
2009-11-06 10:47:49 51°31.66 2°54.487 112.2 0.7 200 19.3
2009-11-06 10:48:49 51°31.649 2°54.481 117 0.6 198 19.7
2009-11-06 10:49:49 51°31.638 2°54.477 121.3 0.7 192 20.8
2009-11-06 10:50:49 51°31.627 2°54.472 122.1 0.6 194 20.5
2009-11-06 10:51:49 51°31.619 2°54.467 117.5 0.6 197 20.5
2009-11-06 10:52:49 51°31.61 2°54.461 113 0.6 207 20.1
2009-11-06 10:53:49 51°31.601 2°54.455 110.7 0.6 202 19.7
2009-11-06 10:54:49 51°31.59 2°54.447 110.7 0.6 215 18.6
2009-11-06 10:55:49 51°31.58 2°54.438 114.4 0.8 205 17.5
2009-11-06 10:56:49 51°31.569 2°54.433 122.8 0.6 167 19.4
2009-11-06 10:57:49 51°31.551 2°54.46 94.4 2.1 120 19.8
2009-11-06 10:58:48 51°31.569 2°54.525 35.5 5.1 35 19.7
2009-11-06 10:59:49 51°31.668 2°54.641 35.8 8.5 39 20.2
2009-11-06 11:00:49 51°31.775 2°54.8 41.7 9 43 20.9
2009-11-06 11:01:49 51°31.899 2°54.934 30.5 8.9 33 21
2009-11-06 11:02:49 51°31.992 2°55.032 35.9 4.6 46 21.3
2009-11-06 11:03:49 51°32.004 2°55.098 75.6 1.6 102 20.9
2009-11-06 11:04:49 51°31.989 2°55.129 101.1 1.3 142 20.5
2009-11-06 11:05:49 51°31.971 2°55.141 120.9 1.1 167 21
2009-11-06 11:06:49 51°31.956 2°55.147 122.6 0.9 172 21.3
2009-11-06 11:07:49 51°31.942 2°55.149 124.9 0.9 180 21.5
2009-11-06 11:08:49 51°31.931 2°55.15 127.3 0.7 185 21.8
2009-11-06 11:09:49 51°31.92 2°55.15 126 0.7 183 21.6
2009-11-06 11:10:49 51°31.911 2°55.148 124 0.6 184 21.4
2009-11-06 11:11:49 51°31.897 2°55.154 131.3 1.3 162 20.8
2009-11-06 11:12:49 51°31.862 2°55.171 161.1 3.4 171 18
2009-11-06 11:13:49 51°31.801 2°55.142 222.7 4.5 223 18.4
2009-11-06 11:14:49 51°31.778 2°55.004 269.2 6.3 265 20.3
2009-11-06 11:15:49 51°31.749 2°54.825 255.5 8.2 252 21.1
2009-11-06 11:16:48 51°31.693 2°54.569 254.4 11.4 252 20.8
2009-11-06 11:17:49 51°31.631 2°54.266 255 11.9 253 20.8
2009-11-06 11:18:49 51°31.569 2°53.966 256 11.9 250 21
2009-11-06 11:19:49 51°31.511 2°53.665 256.3 11.7 253 19
2009-11-06 11:20:49 51°31.452 2°53.365 256.3 11.7 251 20.9
2009-11-06 11:21:49 51°31.394 2°53.068 256.3 11.4 253 19.2
2009-11-06 11:22:49 51°31.349 2°52.846 256.7 6.3 254 22.1
2009-11-06 11:23:49 51°31.339 2°52.715 270.8 4.2 258 18.9
2009-11-06 11:24:49 51°31.314 2°52.628 236 3.3 232 22.1
2009-11-06 11:25:49 51°31.279 2°52.567 230.2 2.7 227 22.2
2009-11-06 11:26:49 51°31.254 2°52.525 236.7 1.5 225 19
2009-11-06 11:27:49 51°31.25 2°52.528 263.6 0.6 136 19.4
2009-11-06 11:28:49 51°31.242 2°52.541 286.6 0.8 152 19.7
2009-11-06 11:29:49 51°31.23 2°52.548 307.2 0.5 159 18.8
2009-11-06 11:30:49 51°31.223 2°52.546 312.4 0.3 215 20.3
2009-11-06 11:31:49 51°31.221 2°52.54 308.8 0.2 264 21.3
2009-11-06 11:32:49 51°31.221 2°52.528 308.7 0.5 281 21.5
2009-11-06 11:33:49 51°31.22 2°52.519 311.1 0.3 244 21.2
2009-11-06 11:34:49 51°31.218 2°52.514 313.2 0.3 244 21.4
2009-11-06 11:35:49 51°31.218 2°52.509 314.7 0.3 238 21.3
2009-11-06 11:36:49 51°31.217 2°52.506 315.6 0.1 138 21.7
2009-11-06 11:37:49 51°31.217 2°52.504 320.4 -999 191 21.7
2009-11-06 11:38:49 51°31.217 2°52.503 321.6 0.1 281 21.4
2009-11-06 11:39:49 51°31.217 2°52.502 318.5 -999 271 21.1
2009-11-06 11:40:49 51°31.218 2°52.5 318.5 0.1 257 21
2009-11-06 11:41:49 51°31.217 2°52.5 319.3 0.2 220 21.4
2009-11-06 11:42:49 51°31.216 2°52.502 321.4 0.2 160 21.4
2009-11-06 11:43:49 51°31.215 2°52.504 324.3 -999 183 21.7
2009-11-06 11:44:49 51°31.216 2°52.501 319.7 0.2 15 21.3
2009-11-06 11:45:48 51°31.217 2°52.499 316.1 0.2 255 21.1
2009-11-06 11:46:49 51°31.217 2°52.499 317.3 0.1 251 21.6
2009-11-06 11:47:49 51°31.216 2°52.501 318.1 0.2 121 21.2
2009-11-06 11:48:49 51°31.215 2°52.505 320.1 0.2 158 21.7
2009-11-06 11:49:49 51°31.214 2°52.508 316.1 0.1 143 22.1
2009-11-06 11:50:49 51°31.213 2°52.51 311.6 0.3 44 22.2
2009-11-06 11:51:49 51°31.214 2°52.51 309.2 0.1 100 21.5
2009-11-06 11:52:49 51°31.215 2°52.509 310.4 0.1 285 22.1
2009-11-06 11:53:49 51°31.215 2°52.507 312.2 0.1 263 21.8
2009-11-06 11:54:49 51°31.216 2°52.508 311.1 0.2 144 21.9
2009-11-06 11:55:49 51°31.215 2°52.511 308.6 0.3 69 22
2009-11-06 11:56:48 51°31.214 2°52.516 306.1 0.4 103 21.2
2009-11-06 11:57:49 51°31.213 2°52.523 309.3 0.1 109 21.9
2009-11-06 11:58:49 51°31.213 2°52.527 312.7 0.1 62 21.8
2009-11-06 11:59:49 51°31.214 2°52.528 309.4 0.1 322 21.5
2009-11-06 12:00:49 51°31.215 2°52.528 305.7 0.1 351 21.9
2009-11-06 12:01:49 51°31.216 2°52.53 302.7 0.1 91 22.1
2009-11-06 12:02:49 51°31.216 2°52.531 298.4 0.1 250 21.8
2009-11-06 12:03:48 51°31.217 2°52.53 294.2 0.1 345 21.8
2009-11-06 12:04:49 51°31.217 2°52.532 296.2 0.1 91 22
2009-11-06 12:05:48 51°31.218 2°52.536 297.6 0.1 173 21.8
2009-11-06 12:06:49 51°31.219 2°52.54 297.8 0.2 53 22.2
2009-11-06 12:07:49 51°31.22 2°52.544 299.1 0.1 29 21.6
2009-11-06 12:08:49 51°31.221 2°52.545 297 0.1 35 21.2
2009-11-06 12:09:49 51°31.222 2°52.548 297.3 -999 161 20.9
2009-11-06 12:10:49 51°31.223 2°52.548 291.3 0.2 8 20.9
2009-11-06 12:11:49 51°31.225 2°52.548 289.7 0.2 32 20.8
2009-11-06 12:12:49 51°31.227 2°52.551 292.6 0.1 66 20
2009-11-06 12:13:49 51°31.228 2°52.554 290 -999 121 19.6
2009-11-06 12:14:49 51°31.23 2°52.554 289.4 0.1 310 18.7
2009-11-06 12:15:49 51°31.233 2°52.554 286 0.2 19 19.8
2009-11-06 12:16:49 51°31.235 2°52.557 285.6 0.2 41 20.8
2009-11-06 12:17:49 51°31.237 2°52.56 282.4 0.2 40 20.8
2009-11-06 12:18:49 51°31.239 2°52.563 283.5 0.1 3 21.1
2009-11-06 12:19:49 51°31.243 2°52.565 285 0.1 52 21.8
2009-11-06 12:20:49 51°31.245 2°52.566 277.8 0.2 51 21.8
2009-11-06 12:21:49 51°31.249 2°52.57 280.7 0.3 61 22
2009-11-06 12:22:49 51°31.253 2°52.576 276 0.4 17 22.7
2009-11-06 12:23:48 51°31.257 2°52.573 273.5 0.4 311 22.9
2009-11-06 12:24:49 51°31.259 2°52.563 268.1 0.6 275 23.2
2009-11-06 12:25:49 51°31.259 2°52.543 254.3 0.7 270 22.6
2009-11-06 12:26:49 51°31.256 2°52.53 247.6 0.6 224 21.1
2009-11-06 12:27:49 51°31.252 2°52.52 238.5 0.5 238 21.2
2009-11-06 12:28:49 51°31.245 2°52.513 227.6 0.3 166 21.2
2009-11-06 12:29:49 51°31.242 2°52.515 228.4 0.7 196 21
2009-11-06 12:30:49 51°31.212 2°52.516 183.8 3 173 22.3
2009-11-06 12:31:49 51°31.137 2°52.51 198.2 6 191 21.1
2009-11-06 12:32:49 51°31.014 2°52.462 193 8.7 191 22.6
2009-11-06 12:33:49 51°30.853 2°52.425 189.9 10.5 189 18.4
2009-11-06 12:34:49 51°30.673 2°52.39 188.6 10.9 186 21.7
2009-11-06 12:35:49 51°30.491 2°52.354 189.1 11.1 186 26.1
2009-11-06 12:36:49 51°30.312 2°52.32 189.5 11 186 28.8
2009-11-06 12:37:49 51°30.134 2°52.285 188.3 10.7 188 31.4
2009-11-06 12:38:49 51°29.959 2°52.253 189.6 10.5 187 30.8
2009-11-06 12:39:49 51°29.783 2°52.225 189.4 10.7 183 31.8
2009-11-06 12:40:49 51°29.608 2°52.207 185.8 10.4 181 31.8
2009-11-06 12:41:49 51°29.433 2°52.205 182.8 10.3 180 31.8
2009-11-06 12:42:49 51°29.259 2°52.204 183.9 10.4 178 30.8
2009-11-06 12:43:49 51°29.087 2°52.204 184.3 10.3 181 32.2
2009-11-06 12:44:49 51°28.914 2°52.202 184.6 10.6 181 30.8
2009-11-06 12:45:49 51°28.736 2°52.198 183.9 10.8 180 30.2
2009-11-06 12:46:49 51°28.559 2°52.194 185.5 10.6 180 29.8
2009-11-06 12:47:49 51°28.384 2°52.191 184.4 10.5 179 28
2009-11-06 12:48:49 51°28.207 2°52.184 185.5 10.6 181 26
2009-11-06 12:49:49 51°28.03 2°52.179 185.3 10.6 180 24.9
2009-11-06 12:50:49 51°27.852 2°52.176 185.1 10.6 177 23.4
2009-11-06 12:51:49 51°27.676 2°52.171 184.9 10.5 181 23.3
2009-11-06 12:52:49 51°27.499 2°52.167 184.2 10.6 180 22.3
2009-11-06 12:53:49 51°27.323 2°52.166 184.2 10.6 180 23.5
2009-11-06 12:54:49 51°27.147 2°52.164 184.9 10.7 181 22.3
2009-11-06 12:55:49 51°26.972 2°52.17 182.2 10.7 177 27.6
2009-11-06 12:56:49 51°26.797 2°52.186 180.4 10.5 176 29.2
2009-11-06 12:57:49 51°26.622 2°52.206 180.4 10.2 176 29.4
2009-11-06 12:58:49 51°26.449 2°52.227 180.8 10.4 178 28.7
2009-11-06 12:59:49 51°26.277 2°52.248 182.3 10.4 173 29.5
2009-11-06 13:00:49 51°26.107 2°52.267 182.4 10.4 174 29.5
2009-11-06 13:01:49 51°25.938 2°52.286 181.4 10.1 179 29
2009-11-06 13:02:49 51°25.768 2°52.309 180.5 10.2 177 28.4
2009-11-06 13:03:49 51°25.599 2°52.33 181.6 10.2 177 27.2
2009-11-06 13:04:49 51°25.425 2°52.348 181.9 10.6 174 26.5
2009-11-06 13:05:49 51°25.251 2°52.368 181.5 10.5 175 27.1
2009-11-06 13:06:49 51°25.077 2°52.389 180.8 10.5 176 27.3
2009-11-06 13:07:49 51°24.906 2°52.409 181.5 10.3 179 26.2
2009-11-06 13:08:49 51°24.734 2°52.429 180.8 10.4 178 23.7
2009-11-06 13:09:49 51°24.561 2°52.441 184.4 10.3 179 21.8
2009-11-06 13:10:49 51°24.391 2°52.445 185.4 10.2 179 20.8
2009-11-06 13:11:49 51°24.222 2°52.446 186 10.1 182 20.1
2009-11-06 13:12:49 51°24.053 2°52.447 185.4 10.1 181 20.4
2009-11-06 13:13:49 51°23.884 2°52.45 185.2 10.1 179 19.5
2009-11-06 13:14:49 51°23.716 2°52.452 185.8 10 179 18.1
2009-11-06 13:15:49 51°23.549 2°52.46 184.8 9.9 179 22.3
2009-11-06 13:16:49 51°23.385 2°52.467 185.9 9.7 177 23.3
2009-11-06 13:17:49 51°23.222 2°52.474 185.5 9.7 178 23.6
2009-11-06 13:18:49 51°23.058 2°52.482 185.9 9.9 176 25
2009-11-06 13:19:49 51°22.896 2°52.491 184.4 9.9 177 26
2009-11-06 13:20:49 51°22.733 2°52.503 184.4 9.7 178 23.1
2009-11-06 13:21:45 51°22.582 2°52.515 186.1 9.9 176 25.5
2009-11-06 13:23:06 51°22.362 2°52.531 185.7 9.8 178 25.9
2009-11-06 13:24:07 51°22.196 2°52.537 185.2 9.7 179 26.6
2009-11-06 13:25:06 51°22.037 2°52.55 185.7 9.7 178 26.5
2009-11-06 13:26:06 51°21.875 2°52.563 184.9 9.9 176 25.7
2009-11-06 13:27:06 51°21.713 2°52.575 184.9 9.7 176 23.5
2009-11-06 13:28:06 51°21.549 2°52.589 185 10.1 177 21.5
2009-11-06 13:29:06 51°21.382 2°52.602 184.4 10.2 178 19.6
2009-11-06 13:30:07 51°21.213 2°52.617 184.1 9.8 178 18.5
2009-11-06 13:31:07 51°21.046 2°52.629 185.2 10.1 177 17.9
2009-11-06 13:32:07 51°20.879 2°52.636 185.3 10.1 180 17.6
2009-11-06 13:33:07 51°20.713 2°52.643 186 10.1 177 18
2009-11-06 13:34:06 51°20.548 2°52.646 184.7 9.9 182 18.5
2009-11-06 13:35:07 51°20.38 2°52.65 185.4 9.9 179 19.2
2009-11-06 13:36:07 51°20.216 2°52.657 185.1 9.7 182 19.1
2009-11-06 13:37:06 51°20.058 2°52.648 190.4 9.6 182 19.1
2009-11-06 13:38:07 51°19.896 2°52.624 193.1 9.6 185 19
2009-11-06 13:39:06 51°19.741 2°52.603 191.8 9.7 183 18.8
2009-11-06 13:40:06 51°19.584 2°52.581 191.1 9.5 185 18.3
2009-11-06 13:41:06 51°19.43 2°52.552 195 9.2 193 17.7
2009-11-06 13:42:07 51°19.275 2°52.505 197.1 9.4 191 17.4
2009-11-06 13:43:06 51°19.127 2°52.459 197 9.2 190 16.7
2009-11-06 13:44:07 51°18.973 2°52.41 196.6 9.4 191 16.2
2009-11-06 13:45:06 51°18.823 2°52.375 190.8 9.4 187 15.6
2009-11-06 13:46:06 51°18.665 2°52.363 188.1 9.4 183 14.9
2009-11-06 13:47:06 51°18.506 2°52.356 188.1 9.5 181 14.5
2009-11-06 13:48:06 51°18.347 2°52.346 188.7 9.4 184 14.3
2009-11-06 13:49:07 51°18.186 2°52.331 190.2 9.6 184 13.9
2009-11-06 13:50:07 51°18.028 2°52.314 188.9 9.4 184 13.6
2009-11-06 13:51:07 51°17.873 2°52.295 190.2 9.4 187 13.6
2009-11-06 13:52:06 51°17.719 2°52.276 190.2 9.5 187 13.4
2009-11-06 13:53:06 51°17.563 2°52.257 188.2 9.3 182 14
2009-11-06 13:54:06 51°17.405 2°52.237 190.2 9.6 184 14.3
2009-11-06 13:55:07 51°17.241 2°52.217 190.4 9.6 185 14.4
2009-11-06 13:56:07 51°17.078 2°52.215 180.8 9.9 171 14.1
2009-11-06 13:57:06 51°16.917 2°52.275 169.2 10.4 159 13.7
2009-11-06 13:58:06 51°16.758 2°52.391 160.7 10.6 153 14.3
2009-11-06 13:59:06 51°16.604 2°52.528 156.5 10.6 150 14.5
2009-11-06 14:00:06 51°16.454 2°52.685 156.9 10.8 145 15.1
2009-11-06 14:01:06 51°16.304 2°52.838 159 10.8 148 15.4
2009-11-06 14:02:06 51°16.154 2°52.989 158.3 10.4 149 15.1
2009-11-06 14:03:06 51°16.002 2°53.134 159 10.5 150 15
2009-11-06 14:04:07 51°15.848 2°53.278 158.6 10.4 151 14.7
2009-11-06 14:05:06 51°15.699 2°53.417 158.5 10.6 150 14.2
2009-11-06 14:06:07 51°15.546 2°53.562 156.4 10.7 148 14
2009-11-06 14:07:07 51°15.4 2°53.721 153.2 10.6 145 13.3
2009-11-06 14:08:06 51°15.257 2°53.879 153.9 10.7 143 12.9
2009-11-06 14:09:07 51°15.109 2°54.042 154.1 10.6 146 12.6
2009-11-06 14:10:06 51°14.968 2°54.201 151.7 10.8 144 12.1
2009-11-06 14:11:06 51°14.832 2°54.386 149.1 10.9 138 13.2
2009-11-06 14:12:06 51°14.698 2°54.577 147.3 10.8 138 13.1
2009-11-06 14:13:06 51°14.565 2°54.77 147.7 10.7 139 13.3
2009-11-06 14:14:06 51°14.429 2°54.962 145.5 11.1 137 13.5
2009-11-06 14:15:06 51°14.304 2°55.167 130.1 10.1 129 13.7
2009-11-06 14:16:07 51°14.194 2°55.345 138.8 8.9 140 14
2009-11-06 14:17:06 51°14.071 2°55.461 153.6 8.7 155 13.9
2009-11-06 14:18:07 51°13.96 2°55.543 155.4 7.1 157 14.2
2009-11-06 14:19:06 51°13.848 2°55.625 154.5 7.7 154 14.2
2009-11-06 14:20:07 51°13.746 2°55.737 135.2 6.4 136 14.4
2009-11-06 14:21:06 51°13.694 2°55.845 120.7 4.6 119 12.2
2009-11-06 14:22:07 51°13.67 2°55.938 111.8 2 110 10.8
2009-11-06 14:23:06 51°13.662 2°55.955 126.4 0.5 144 10.8